sensor_id;sensor_type;location;lat;lon;timestamp;P1;durP1;ratioP1;P2;durP2;ratioP2
27642;SDS011;15053;48.618;10.024;2023-02-01T00:00:31;2.25;;;1.63;;
27642;SDS011;15053;48.618;10.024;2023-02-01T00:02:59;3.65;;;2.05;;
27642;SDS011;15053;48.618;10.024;2023-02-01T00:05:26;3.13;;;2.20;;
27642;SDS011;15053;48.618;10.024;2023-02-01T00:07:52;5.15;;;2.28;;
27642;SDS011;15053;48.618;10.024;2023-02-01T00:10:19;2.67;;;1.80;;
27642;SDS011;15053;48.618;10.024;2023-02-01T00:12:46;2.65;;;1.85;;
27642;SDS011;15053;48.618;10.024;2023-02-01T00:15:12;6.93;;;2.53;;
27642;SDS011;15053;48.618;10.024;2023-02-01T00:17:39;4.43;;;2.10;;
27642;SDS011;15053;48.618;10.024;2023-02-01T00:20:05;5.05;;;2.33;;
27642;SDS011;15053;48.618;10.024;2023-02-01T00:22:32;4.13;;;2.22;;
27642;SDS011;15053;48.618;10.024;2023-02-01T00:24:58;4.60;;;1.92;;
27642;SDS011;15053;48.618;10.024;2023-02-01T00:27:25;2.90;;;2.15;;
27642;SDS011;15053;48.618;10.024;2023-02-01T00:29:53;2.90;;;2.10;;
27642;SDS011;15053;48.618;10.024;2023-02-01T00:32:20;5.95;;;3.25;;
27642;SDS011;15053;48.618;10.024;2023-02-01T00:34:47;2.67;;;2.10;;
27642;SDS011;15053;48.618;10.024;2023-02-01T00:37:13;5.22;;;2.20;;
27642;SDS011;15053;48.618;10.024;2023-02-01T00:39:40;3.42;;;2.20;;
27642;SDS011;15053;48.618;10.024;2023-02-01T00:42:07;3.58;;;2.40;;
27642;SDS011;15053;48.618;10.024;2023-02-01T00:44:34;3.53;;;2.28;;
27642;SDS011;15053;48.618;10.024;2023-02-01T00:47:01;4.18;;;2.58;;
27642;SDS011;15053;48.618;10.024;2023-02-01T00:49:28;3.22;;;2.30;;
27642;SDS011;15053;48.618;10.024;2023-02-01T00:51:54;3.35;;;2.67;;
27642;SDS011;15053;48.618;10.024;2023-02-01T00:54:22;3.70;;;2.33;;
27642;SDS011;15053;48.618;10.024;2023-02-01T00:56:48;2.72;;;2.00;;
27642;SDS011;15053;48.618;10.024;2023-02-01T00:59:17;4.68;;;2.33;;
27642;SDS011;15053;48.618;10.024;2023-02-01T01:01:43;4.65;;;2.08;;
27642;SDS011;15053;48.618;10.024;2023-02-01T01:04:10;3.63;;;2.45;;
27642;SDS011;15053;48.618;10.024;2023-02-01T01:06:36;4.72;;;1.80;;
27642;SDS011;15053;48.618;10.024;2023-02-01T01:09:04;4.03;;;1.85;;
27642;SDS011;15053;48.618;10.024;2023-02-01T01:11:33;3.53;;;2.00;;
27642;SDS011;15053;48.618;10.024;2023-02-01T01:14:03;2.20;;;1.70;;
27642;SDS011;15053;48.618;10.024;2023-02-01T01:16:31;2.97;;;1.67;;
27642;SDS011;15053;48.618;10.024;2023-02-01T01:18:59;1.70;;;1.58;;
27642;SDS011;15053;48.618;10.024;2023-02-01T01:21:26;2.65;;;1.50;;
27642;SDS011;15053;48.618;10.024;2023-02-01T01:23:53;1.80;;;1.45;;
27642;SDS011;15053;48.618;10.024;2023-02-01T01:26:21;1.92;;;1.50;;
27642;SDS011;15053;48.618;10.024;2023-02-01T01:28:50;1.95;;;1.35;;
27642;SDS011;15053;48.618;10.024;2023-02-01T01:31:18;2.75;;;1.15;;
27642;SDS011;15053;48.618;10.024;2023-02-01T01:33:53;1.63;;;1.52;;
27642;SDS011;15053;48.618;10.024;2023-02-01T01:36:22;1.58;;;1.33;;
27642;SDS011;15053;48.618;10.024;2023-02-01T01:38:49;1.73;;;1.20;;
27642;SDS011;15053;48.618;10.024;2023-02-01T01:41:19;1.58;;;1.35;;
27642;SDS011;15053;48.618;10.024;2023-02-01T01:46:37;2.28;;;1.35;;
27642;SDS011;15053;48.618;10.024;2023-02-01T01:51:37;2.05;;;1.50;;
27642;SDS011;15053;48.618;10.024;2023-02-01T01:54:13;1.65;;;1.20;;
27642;SDS011;15053;48.618;10.024;2023-02-01T01:56:44;1.38;;;1.27;;
27642;SDS011;15053;48.618;10.024;2023-02-01T01:59:15;1.63;;;1.27;;
27642;SDS011;15053;48.618;10.024;2023-02-01T02:01:41;3.45;;;2.05;;
27642;SDS011;15053;48.618;10.024;2023-02-01T02:04:08;2.10;;;1.35;;
27642;SDS011;15053;48.618;10.024;2023-02-01T02:09:11;1.48;;;1.38;;
27642;SDS011;15053;48.618;10.024;2023-02-01T02:11:38;1.70;;;1.42;;
27642;SDS011;15053;48.618;10.024;2023-02-01T02:14:05;2.65;;;1.33;;
27642;SDS011;15053;48.618;10.024;2023-02-01T02:16:38;3.97;;;1.48;;
27642;SDS011;15053;48.618;10.024;2023-02-01T02:22:23;2.95;;;1.50;;
27642;SDS011;15053;48.618;10.024;2023-02-01T02:24:58;2.10;;;1.40;;
27642;SDS011;15053;48.618;10.024;2023-02-01T02:30:19;1.98;;;1.50;;
27642;SDS011;15053;48.618;10.024;2023-02-01T02:36:21;3.78;;;1.30;;
27642;SDS011;15053;48.618;10.024;2023-02-01T02:39:03;1.85;;;1.40;;
27642;SDS011;15053;48.618;10.024;2023-02-01T02:41:43;1.48;;;1.35;;
27642;SDS011;15053;48.618;10.024;2023-02-01T02:50:12;1.77;;;1.55;;
27642;SDS011;15053;48.618;10.024;2023-02-01T02:53:18;2.22;;;1.45;;
27642;SDS011;15053;48.618;10.024;2023-02-01T02:56:08;2.47;;;1.40;;
27642;SDS011;15053;48.618;10.024;2023-02-01T02:58:56;1.52;;;1.25;;
27642;SDS011;15053;48.618;10.024;2023-02-01T03:01:42;2.05;;;1.52;;
27642;SDS011;15053;48.618;10.024;2023-02-01T03:04:28;1.23;;;1.13;;
27642;SDS011;15053;48.618;10.024;2023-02-01T03:06:55;1.10;;;1.00;;
27642;SDS011;15053;48.618;10.024;2023-02-01T03:09:31;1.33;;;1.23;;
27642;SDS011;15053;48.618;10.024;2023-02-01T03:12:05;2.55;;;1.38;;
27642;SDS011;15053;48.618;10.024;2023-02-01T03:15:03;1.20;;;1.00;;
27642;SDS011;15053;48.618;10.024;2023-02-01T03:17:35;2.15;;;1.40;;
27642;SDS011;15053;48.618;10.024;2023-02-01T03:20:06;4.15;;;1.40;;
27642;SDS011;15053;48.618;10.024;2023-02-01T03:22:35;3.10;;;1.27;;
27642;SDS011;15053;48.618;10.024;2023-02-01T03:25:12;1.92;;;1.40;;
27642;SDS011;15053;48.618;10.024;2023-02-01T03:27:53;1.50;;;1.40;;
27642;SDS011;15053;48.618;10.024;2023-02-01T03:30:28;1.13;;;1.00;;
27642;SDS011;15053;48.618;10.024;2023-02-01T03:32:58;1.33;;;1.23;;
27642;SDS011;15053;48.618;10.024;2023-02-01T03:35:40;1.40;;;1.15;;
27642;SDS011;15053;48.618;10.024;2023-02-01T03:38:13;1.77;;;1.48;;
27642;SDS011;15053;48.618;10.024;2023-02-01T03:46:54;1.85;;;1.50;;
27642;SDS011;15053;48.618;10.024;2023-02-01T03:49:24;3.78;;;1.65;;
27642;SDS011;15053;48.618;10.024;2023-02-01T03:51:54;1.90;;;1.27;;
27642;SDS011;15053;48.618;10.024;2023-02-01T03:54:24;3.47;;;1.75;;
27642;SDS011;15053;48.618;10.024;2023-02-01T03:56:53;2.30;;;1.80;;
27642;SDS011;15053;48.618;10.024;2023-02-01T03:59:25;2.55;;;1.73;;
27642;SDS011;15053;48.618;10.024;2023-02-01T04:01:51;1.95;;;1.75;;
27642;SDS011;15053;48.618;10.024;2023-02-01T04:04:19;2.13;;;1.60;;
27642;SDS011;15053;48.618;10.024;2023-02-01T04:06:49;2.67;;;1.70;;
27642;SDS011;15053;48.618;10.024;2023-02-01T04:09:17;3.28;;;2.00;;
27642;SDS011;15053;48.618;10.024;2023-02-01T04:11:43;2.83;;;1.98;;
27642;SDS011;15053;48.618;10.024;2023-02-01T04:14:10;4.05;;;1.77;;
27642;SDS011;15053;48.618;10.024;2023-02-01T04:16:36;3.10;;;2.08;;
27642;SDS011;15053;48.618;10.024;2023-02-01T04:19:03;2.63;;;1.85;;
27642;SDS011;15053;48.618;10.024;2023-02-01T04:21:29;4.30;;;2.00;;
27642;SDS011;15053;48.618;10.024;2023-02-01T04:23:56;4.03;;;1.98;;
27642;SDS011;15053;48.618;10.024;2023-02-01T04:26:22;2.80;;;2.60;;
27642;SDS011;15053;48.618;10.024;2023-02-01T04:28:49;2.80;;;2.25;;
27642;SDS011;15053;48.618;10.024;2023-02-01T04:31:17;2.05;;;1.85;;
27642;SDS011;15053;48.618;10.024;2023-02-01T04:33:44;3.80;;;2.08;;
27642;SDS011;15053;48.618;10.024;2023-02-01T04:36:10;2.90;;;1.85;;
27642;SDS011;15053;48.618;10.024;2023-02-01T04:38:37;2.40;;;2.20;;
27642;SDS011;15053;48.618;10.024;2023-02-01T04:41:03;2.60;;;1.70;;
27642;SDS011;15053;48.618;10.024;2023-02-01T04:43:29;2.42;;;2.20;;
27642;SDS011;15053;48.618;10.024;2023-02-01T04:45:56;2.42;;;1.90;;
27642;SDS011;15053;48.618;10.024;2023-02-01T04:48:22;3.10;;;1.85;;
27642;SDS011;15053;48.618;10.024;2023-02-01T04:50:50;2.63;;;1.83;;
27642;SDS011;15053;48.618;10.024;2023-02-01T04:53:17;2.10;;;1.90;;
27642;SDS011;15053;48.618;10.024;2023-02-01T04:55:44;2.30;;;2.05;;
27642;SDS011;15053;48.618;10.024;2023-02-01T04:58:10;5.72;;;2.10;;
27642;SDS011;15053;48.618;10.024;2023-02-01T05:00:37;3.35;;;2.33;;
27642;SDS011;15053;48.618;10.024;2023-02-01T05:03:04;2.30;;;1.92;;
27642;SDS011;15053;48.618;10.024;2023-02-01T05:05:30;3.72;;;2.00;;
27642;SDS011;15053;48.618;10.024;2023-02-01T05:07:56;2.30;;;1.73;;
27642;SDS011;15053;48.618;10.024;2023-02-01T05:10:23;3.55;;;2.08;;
27642;SDS011;15053;48.618;10.024;2023-02-01T05:12:50;2.60;;;2.00;;
27642;SDS011;15053;48.618;10.024;2023-02-01T05:15:35;3.50;;;2.03;;
27642;SDS011;15053;48.618;10.024;2023-02-01T05:18:01;4.55;;;2.13;;
27642;SDS011;15053;48.618;10.024;2023-02-01T05:20:28;2.42;;;2.20;;
27642;SDS011;15053;48.618;10.024;2023-02-01T05:22:54;3.05;;;2.17;;
27642;SDS011;15053;48.618;10.024;2023-02-01T05:25:21;3.28;;;2.05;;
27642;SDS011;15053;48.618;10.024;2023-02-01T05:27:47;2.55;;;1.90;;
27642;SDS011;15053;48.618;10.024;2023-02-01T05:30:14;2.22;;;1.85;;
27642;SDS011;15053;48.618;10.024;2023-02-01T05:32:40;3.47;;;1.98;;
27642;SDS011;15053;48.618;10.024;2023-02-01T05:35:07;3.58;;;2.30;;
27642;SDS011;15053;48.618;10.024;2023-02-01T05:37:34;3.88;;;2.47;;
27642;SDS011;15053;48.618;10.024;2023-02-01T05:40:00;2.00;;;1.80;;
27642;SDS011;15053;48.618;10.024;2023-02-01T05:42:27;2.83;;;1.63;;
27642;SDS011;15053;48.618;10.024;2023-02-01T05:44:53;2.60;;;1.98;;
27642;SDS011;15053;48.618;10.024;2023-02-01T05:47:19;2.42;;;1.73;;
27642;SDS011;15053;48.618;10.024;2023-02-01T05:49:47;2.08;;;1.52;;
27642;SDS011;15053;48.618;10.024;2023-02-01T05:52:13;4.10;;;1.80;;
27642;SDS011;15053;48.618;10.024;2023-02-01T05:54:39;2.92;;;1.88;;
27642;SDS011;15053;48.618;10.024;2023-02-01T05:57:06;1.50;;;1.40;;
27642;SDS011;15053;48.618;10.024;2023-02-01T05:59:33;5.38;;;1.90;;
27642;SDS011;15053;48.618;10.024;2023-02-01T06:01:59;2.38;;;1.50;;
27642;SDS011;15053;48.618;10.024;2023-02-01T06:04:25;1.63;;;1.42;;
27642;SDS011;15053;48.618;10.024;2023-02-01T06:06:52;5.38;;;1.60;;
27642;SDS011;15053;48.618;10.024;2023-02-01T06:09:18;1.95;;;1.40;;
27642;SDS011;15053;48.618;10.024;2023-02-01T06:11:45;3.65;;;1.70;;
27642;SDS011;15053;48.618;10.024;2023-02-01T06:14:11;3.17;;;2.30;;
27642;SDS011;15053;48.618;10.024;2023-02-01T06:16:38;3.45;;;1.60;;
27642;SDS011;15053;48.618;10.024;2023-02-01T06:19:04;3.45;;;1.48;;
27642;SDS011;15053;48.618;10.024;2023-02-01T06:21:31;2.10;;;1.70;;
27642;SDS011;15053;48.618;10.024;2023-02-01T06:23:57;3.33;;;1.50;;
27642;SDS011;15053;48.618;10.024;2023-02-01T06:26:24;1.50;;;1.40;;
27642;SDS011;15053;48.618;10.024;2023-02-01T06:28:52;3.63;;;1.90;;
27642;SDS011;15053;48.618;10.024;2023-02-01T06:31:18;4.55;;;1.80;;
27642;SDS011;15053;48.618;10.024;2023-02-01T06:33:45;3.75;;;1.70;;
27642;SDS011;15053;48.618;10.024;2023-02-01T06:36:13;1.80;;;1.52;;
27642;SDS011;15053;48.618;10.024;2023-02-01T06:38:39;5.88;;;2.17;;
27642;SDS011;15053;48.618;10.024;2023-02-01T06:41:06;5.75;;;1.50;;
27642;SDS011;15053;48.618;10.024;2023-02-01T06:43:32;2.67;;;1.42;;
27642;SDS011;15053;48.618;10.024;2023-02-01T06:46:00;3.60;;;1.40;;
27642;SDS011;15053;48.618;10.024;2023-02-01T06:48:28;3.28;;;2.30;;
27642;SDS011;15053;48.618;10.024;2023-02-01T06:50:55;2.85;;;1.70;;
27642;SDS011;15053;48.618;10.024;2023-02-01T06:53:21;1.85;;;1.52;;
27642;SDS011;15053;48.618;10.024;2023-02-01T06:55:52;3.22;;;1.90;;
27642;SDS011;15053;48.618;10.024;2023-02-01T06:58:19;4.18;;;1.90;;
27642;SDS011;15053;48.618;10.024;2023-02-01T07:00:46;2.08;;;1.42;;
27642;SDS011;15053;48.618;10.024;2023-02-01T07:03:12;3.40;;;2.00;;
27642;SDS011;15053;48.618;10.024;2023-02-01T07:05:39;2.17;;;1.92;;
27642;SDS011;15053;48.618;10.024;2023-02-01T07:08:05;2.13;;;1.48;;
27642;SDS011;15053;48.618;10.024;2023-02-01T07:10:33;1.73;;;1.60;;
27642;SDS011;15053;48.618;10.024;2023-02-01T07:13:00;4.05;;;1.80;;
27642;SDS011;15053;48.618;10.024;2023-02-01T07:15:27;2.67;;;1.77;;
27642;SDS011;15053;48.618;10.024;2023-02-01T07:17:56;4.25;;;2.03;;
27642;SDS011;15053;48.618;10.024;2023-02-01T07:20:23;2.83;;;2.05;;
27642;SDS011;15053;48.618;10.024;2023-02-01T07:22:54;3.53;;;1.90;;
27642;SDS011;15053;48.618;10.024;2023-02-01T07:25:22;3.25;;;2.00;;
27642;SDS011;15053;48.618;10.024;2023-02-01T07:27:49;3.00;;;2.00;;
27642;SDS011;15053;48.618;10.024;2023-02-01T07:30:16;2.53;;;1.92;;
27642;SDS011;15053;48.618;10.024;2023-02-01T07:32:43;3.00;;;1.95;;
27642;SDS011;15053;48.618;10.024;2023-02-01T07:35:09;3.50;;;1.90;;
27642;SDS011;15053;48.618;10.024;2023-02-01T07:37:36;3.40;;;2.30;;
27642;SDS011;15053;48.618;10.024;2023-02-01T07:40:02;5.78;;;2.38;;
27642;SDS011;15053;48.618;10.024;2023-02-01T07:42:29;3.97;;;1.95;;
27642;SDS011;15053;48.618;10.024;2023-02-01T07:44:55;4.15;;;2.30;;
27642;SDS011;15053;48.618;10.024;2023-02-01T07:47:26;4.38;;;2.20;;
27642;SDS011;15053;48.618;10.024;2023-02-01T07:49:53;9.18;;;3.85;;
27642;SDS011;15053;48.618;10.024;2023-02-01T07:52:19;4.28;;;2.78;;
27642;SDS011;15053;48.618;10.024;2023-02-01T07:54:46;6.65;;;2.53;;
27642;SDS011;15053;48.618;10.024;2023-02-01T07:57:12;5.97;;;2.10;;
27642;SDS011;15053;48.618;10.024;2023-02-01T07:59:39;4.38;;;2.10;;
27642;SDS011;15053;48.618;10.024;2023-02-01T08:02:25;5.55;;;2.05;;
27642;SDS011;15053;48.618;10.024;2023-02-01T08:04:52;8.07;;;2.28;;
27642;SDS011;15053;48.618;10.024;2023-02-01T08:07:18;6.50;;;2.53;;
27642;SDS011;15053;48.618;10.024;2023-02-01T08:09:45;4.10;;;2.28;;
27642;SDS011;15053;48.618;10.024;2023-02-01T08:12:11;7.47;;;2.10;;
27642;SDS011;15053;48.618;10.024;2023-02-01T08:14:38;4.35;;;2.35;;
27642;SDS011;15053;48.618;10.024;2023-02-01T08:17:06;3.70;;;2.30;;
27642;SDS011;15053;48.618;10.024;2023-02-01T08:19:33;7.40;;;2.53;;
27642;SDS011;15053;48.618;10.024;2023-02-01T08:22:00;3.67;;;2.28;;
27642;SDS011;15053;48.618;10.024;2023-02-01T08:24:28;4.07;;;2.35;;
27642;SDS011;15053;48.618;10.024;2023-02-01T08:26:54;5.20;;;2.42;;
27642;SDS011;15053;48.618;10.024;2023-02-01T08:29:21;5.93;;;2.33;;
27642;SDS011;15053;48.618;10.024;2023-02-01T08:31:47;6.07;;;2.63;;
27642;SDS011;15053;48.618;10.024;2023-02-01T08:34:13;3.30;;;2.35;;
27642;SDS011;15053;48.618;10.024;2023-02-01T08:36:40;7.10;;;2.55;;
27642;SDS011;15053;48.618;10.024;2023-02-01T08:39:08;4.63;;;2.75;;
27642;SDS011;15053;48.618;10.024;2023-02-01T08:41:36;3.05;;;2.47;;
27642;SDS011;15053;48.618;10.024;2023-02-01T08:44:03;10.07;;;2.90;;
27642;SDS011;15053;48.618;10.024;2023-02-01T08:46:30;3.55;;;2.30;;
27642;SDS011;15053;48.618;10.024;2023-02-01T08:48:56;8.82;;;2.75;;
27642;SDS011;15053;48.618;10.024;2023-02-01T08:51:23;3.53;;;2.47;;
27642;SDS011;15053;48.618;10.024;2023-02-01T08:53:49;6.18;;;2.20;;
27642;SDS011;15053;48.618;10.024;2023-02-01T08:56:17;6.80;;;2.60;;
27642;SDS011;15053;48.618;10.024;2023-02-01T08:58:45;6.18;;;2.65;;
27642;SDS011;15053;48.618;10.024;2023-02-01T09:01:13;5.15;;;2.60;;
27642;SDS011;15053;48.618;10.024;2023-02-01T09:03:41;6.00;;;2.70;;
27642;SDS011;15053;48.618;10.024;2023-02-01T09:06:09;6.70;;;2.75;;
27642;SDS011;15053;48.618;10.024;2023-02-01T09:08:37;6.03;;;2.85;;
27642;SDS011;15053;48.618;10.024;2023-02-01T09:11:06;8.38;;;2.92;;
27642;SDS011;15053;48.618;10.024;2023-02-01T09:13:37;10.02;;;2.47;;
27642;SDS011;15053;48.618;10.024;2023-02-01T09:16:03;9.30;;;2.80;;
27642;SDS011;15053;48.618;10.024;2023-02-01T09:18:30;8.70;;;2.75;;
27642;SDS011;15053;48.618;10.024;2023-02-01T09:20:57;10.57;;;3.00;;
27642;SDS011;15053;48.618;10.024;2023-02-01T09:23:23;8.77;;;3.28;;
27642;SDS011;15053;48.618;10.024;2023-02-01T09:25:50;8.30;;;2.90;;
27642;SDS011;15053;48.618;10.024;2023-02-01T09:28:17;11.25;;;2.92;;
27642;SDS011;15053;48.618;10.024;2023-02-01T09:30:44;9.30;;;3.63;;
27642;SDS011;15053;48.618;10.024;2023-02-01T09:33:11;7.82;;;2.80;;
27642;SDS011;15053;48.618;10.024;2023-02-01T09:35:37;7.88;;;3.65;;
27642;SDS011;15053;48.618;10.024;2023-02-01T09:38:04;11.85;;;3.58;;
27642;SDS011;15053;48.618;10.024;2023-02-01T09:40:30;6.38;;;2.85;;
27642;SDS011;15053;48.618;10.024;2023-02-01T09:43:05;6.72;;;2.47;;
27642;SDS011;15053;48.618;10.024;2023-02-01T09:45:53;7.32;;;2.88;;
27642;SDS011;15053;48.618;10.024;2023-02-01T09:48:21;8.02;;;3.08;;
27642;SDS011;15053;48.618;10.024;2023-02-01T09:50:58;7.93;;;2.88;;
27642;SDS011;15053;48.618;10.024;2023-02-01T09:53:29;7.50;;;2.83;;
27642;SDS011;15053;48.618;10.024;2023-02-01T09:56:12;8.77;;;2.72;;
27642;SDS011;15053;48.618;10.024;2023-02-01T09:59:01;7.07;;;2.38;;
27642;SDS011;15053;48.618;10.024;2023-02-01T10:01:40;7.80;;;2.50;;
27642;SDS011;15053;48.618;10.024;2023-02-01T10:04:09;7.53;;;3.17;;
27642;SDS011;15053;48.618;10.024;2023-02-01T10:07:01;8.93;;;3.42;;
27642;SDS011;15053;48.618;10.024;2023-02-01T10:09:45;5.88;;;2.88;;
27642;SDS011;15053;48.618;10.024;2023-02-01T10:15:09;7.93;;;2.67;;
27642;SDS011;15053;48.618;10.024;2023-02-01T10:17:54;5.43;;;2.53;;
27642;SDS011;15053;48.618;10.024;2023-02-01T10:28:48;10.88;;;2.40;;
27642;SDS011;15053;48.618;10.024;2023-02-01T10:31:17;8.63;;;2.90;;
27642;SDS011;15053;48.618;10.024;2023-02-01T10:33:45;7.45;;;2.60;;
27642;SDS011;15053;48.618;10.024;2023-02-01T10:39:10;6.30;;;2.25;;
27642;SDS011;15053;48.618;10.024;2023-02-01T10:41:40;13.07;;;2.88;;
27642;SDS011;15053;48.618;10.024;2023-02-01T10:44:13;6.40;;;2.75;;
27642;SDS011;15053;48.618;10.024;2023-02-01T10:46:43;8.90;;;2.70;;
27642;SDS011;15053;48.618;10.024;2023-02-01T10:49:20;10.98;;;3.17;;
27642;SDS011;15053;48.618;10.024;2023-02-01T10:51:54;10.70;;;2.90;;
27642;SDS011;15053;48.618;10.024;2023-02-01T10:54:32;11.52;;;3.03;;
27642;SDS011;15053;48.618;10.024;2023-02-01T10:57:01;12.35;;;3.25;;
27642;SDS011;15053;48.618;10.024;2023-02-01T10:59:28;6.53;;;2.65;;
27642;SDS011;15053;48.618;10.024;2023-02-01T11:01:59;7.03;;;3.27;;
27642;SDS011;15053;48.618;10.024;2023-02-01T11:04:30;13.35;;;4.00;;
27642;SDS011;15053;48.618;10.024;2023-02-01T11:07:12;6.30;;;2.78;;
27642;SDS011;15053;48.618;10.024;2023-02-01T11:09:40;13.55;;;3.13;;
27642;SDS011;15053;48.618;10.024;2023-02-01T11:15:14;10.50;;;3.40;;
27642;SDS011;15053;48.618;10.024;2023-02-01T11:17:47;13.70;;;3.22;;
27642;SDS011;15053;48.618;10.024;2023-02-01T11:20:18;11.65;;;2.90;;
27642;SDS011;15053;48.618;10.024;2023-02-01T11:23:03;8.90;;;2.60;;
27642;SDS011;15053;48.618;10.024;2023-02-01T11:25:29;11.75;;;3.15;;
27642;SDS011;15053;48.618;10.024;2023-02-01T11:27:58;10.27;;;2.90;;
27642;SDS011;15053;48.618;10.024;2023-02-01T11:30:35;9.38;;;3.22;;
27642;SDS011;15053;48.618;10.024;2023-02-01T11:33:06;8.52;;;2.63;;
27642;SDS011;15053;48.618;10.024;2023-02-01T11:35:38;6.88;;;2.60;;
27642;SDS011;15053;48.618;10.024;2023-02-01T11:40:53;15.93;;;3.10;;
27642;SDS011;15053;48.618;10.024;2023-02-01T11:43:27;8.40;;;2.75;;
27642;SDS011;15053;48.618;10.024;2023-02-01T11:45:58;12.10;;;3.10;;
27642;SDS011;15053;48.618;10.024;2023-02-01T11:48:29;12.88;;;2.28;;
27642;SDS011;15053;48.618;10.024;2023-02-01T11:53:48;5.50;;;2.17;;
27642;SDS011;15053;48.618;10.024;2023-02-01T11:56:37;9.25;;;2.88;;
27642;SDS011;15053;48.618;10.024;2023-02-01T12:04:56;10.45;;;2.95;;
27642;SDS011;15053;48.618;10.024;2023-02-01T12:13:46;12.00;;;2.95;;
27642;SDS011;15053;48.618;10.024;2023-02-01T12:24:49;10.50;;;2.40;;
27642;SDS011;15053;48.618;10.024;2023-02-01T12:46:47;6.95;;;3.35;;
27642;SDS011;15053;48.618;10.024;2023-02-01T12:52:02;8.68;;;2.72;;
27642;SDS011;15053;48.618;10.024;2023-02-01T12:54:42;12.40;;;2.60;;
27642;SDS011;15053;48.618;10.024;2023-02-01T12:57:17;7.57;;;3.05;;
27642;SDS011;15053;48.618;10.024;2023-02-01T13:08:26;4.50;;;1.90;;
27642;SDS011;15053;48.618;10.024;2023-02-01T13:13:47;10.35;;;4.10;;
27642;SDS011;15053;48.618;10.024;2023-02-01T13:16:40;13.40;;;3.55;;
27642;SDS011;15053;48.618;10.024;2023-02-01T13:21:55;11.45;;;2.72;;
27642;SDS011;15053;48.618;10.024;2023-02-01T13:24:45;5.78;;;2.30;;
27642;SDS011;15053;48.618;10.024;2023-02-01T13:27:16;6.63;;;2.15;;
27642;SDS011;15053;48.618;10.024;2023-02-01T13:42:16;10.52;;;2.65;;
27642;SDS011;15053;48.618;10.024;2023-02-01T13:47:32;9.43;;;2.75;;
27642;SDS011;15053;48.618;10.024;2023-02-01T13:52:55;11.98;;;3.13;;
27642;SDS011;15053;48.618;10.024;2023-02-01T13:55:29;19.97;;;3.80;;
27642;SDS011;15053;48.618;10.024;2023-02-01T14:03:59;16.55;;;3.05;;
27642;SDS011;15053;48.618;10.024;2023-02-01T14:11:56;11.27;;;3.15;;
27642;SDS011;15053;48.618;10.024;2023-02-01T14:19:37;10.00;;;3.30;;
27642;SDS011;15053;48.618;10.024;2023-02-01T14:24:55;8.77;;;2.33;;
27642;SDS011;15053;48.618;10.024;2023-02-01T14:27:24;13.05;;;3.33;;
27642;SDS011;15053;48.618;10.024;2023-02-01T14:29:56;6.30;;;2.10;;
27642;SDS011;15053;48.618;10.024;2023-02-01T14:35:12;10.88;;;2.63;;
27642;SDS011;15053;48.618;10.024;2023-02-01T14:37:44;8.68;;;2.50;;
27642;SDS011;15053;48.618;10.024;2023-02-01T14:53:11;9.25;;;2.25;;
27642;SDS011;15053;48.618;10.024;2023-02-01T14:55:52;6.82;;;2.75;;
27642;SDS011;15053;48.618;10.024;2023-02-01T15:01:17;13.63;;;2.83;;
27642;SDS011;15053;48.618;10.024;2023-02-01T15:06:22;9.32;;;2.83;;
27642;SDS011;15053;48.618;10.024;2023-02-01T15:14:40;10.40;;;2.60;;
27642;SDS011;15053;48.618;10.024;2023-02-01T15:19:54;15.35;;;3.10;;
27642;SDS011;15053;48.618;10.024;2023-02-01T15:22:22;10.88;;;2.78;;
27642;SDS011;15053;48.618;10.024;2023-02-01T15:24:57;7.63;;;3.17;;
27642;SDS011;15053;48.618;10.024;2023-02-01T15:27:25;8.00;;;2.40;;
27642;SDS011;15053;48.618;10.024;2023-02-01T15:29:53;6.38;;;2.20;;
27642;SDS011;15053;48.618;10.024;2023-02-01T15:32:33;8.70;;;3.50;;
27642;SDS011;15053;48.618;10.024;2023-02-01T15:35:01;7.88;;;2.80;;
27642;SDS011;15053;48.618;10.024;2023-02-01T15:37:28;12.43;;;3.00;;
27642;SDS011;15053;48.618;10.024;2023-02-01T15:42:37;14.13;;;2.42;;
27642;SDS011;15053;48.618;10.024;2023-02-01T15:45:19;15.35;;;4.00;;
27642;SDS011;15053;48.618;10.024;2023-02-01T15:47:48;11.52;;;2.80;;
27642;SDS011;15053;48.618;10.024;2023-02-01T15:50:17;12.05;;;4.00;;
27642;SDS011;15053;48.618;10.024;2023-02-01T15:52:48;7.40;;;3.45;;
27642;SDS011;15053;48.618;10.024;2023-02-01T15:55:23;11.65;;;2.85;;
27642;SDS011;15053;48.618;10.024;2023-02-01T15:58:00;13.00;;;2.78;;
27642;SDS011;15053;48.618;10.024;2023-02-01T16:00:40;11.02;;;2.70;;
27642;SDS011;15053;48.618;10.024;2023-02-01T16:06:11;7.68;;;3.05;;
27642;SDS011;15053;48.618;10.024;2023-02-01T16:08:51;7.95;;;2.53;;
27642;SDS011;15053;48.618;10.024;2023-02-01T16:11:24;7.47;;;2.47;;
27642;SDS011;15053;48.618;10.024;2023-02-01T16:13:57;10.60;;;2.63;;
27642;SDS011;15053;48.618;10.024;2023-02-01T16:16:25;12.40;;;3.08;;
27642;SDS011;15053;48.618;10.024;2023-02-01T16:18:52;11.20;;;3.22;;
27642;SDS011;15053;48.618;10.024;2023-02-01T16:21:18;13.80;;;3.10;;
27642;SDS011;15053;48.618;10.024;2023-02-01T16:23:49;11.63;;;3.50;;
27642;SDS011;15053;48.618;10.024;2023-02-01T16:26:17;10.70;;;2.78;;
27642;SDS011;15053;48.618;10.024;2023-02-01T16:28:45;13.30;;;3.13;;
27642;SDS011;15053;48.618;10.024;2023-02-01T16:31:12;10.70;;;3.50;;
27642;SDS011;15053;48.618;10.024;2023-02-01T16:33:48;13.25;;;3.45;;
27642;SDS011;15053;48.618;10.024;2023-02-01T16:36:16;16.83;;;3.17;;
27642;SDS011;15053;48.618;10.024;2023-02-01T16:38:44;7.72;;;2.85;;
27642;SDS011;15053;48.618;10.024;2023-02-01T16:41:13;14.15;;;3.22;;
27642;SDS011;15053;48.618;10.024;2023-02-01T16:43:40;12.75;;;2.75;;
27642;SDS011;15053;48.618;10.024;2023-02-01T16:46:11;9.52;;;3.65;;
27642;SDS011;15053;48.618;10.024;2023-02-01T16:48:41;12.07;;;3.47;;
27642;SDS011;15053;48.618;10.024;2023-02-01T16:51:09;14.40;;;3.25;;
27642;SDS011;15053;48.618;10.024;2023-02-01T16:53:38;6.38;;;3.30;;
27642;SDS011;15053;48.618;10.024;2023-02-01T16:56:20;13.15;;;2.72;;
27642;SDS011;15053;48.618;10.024;2023-02-01T16:58:48;9.52;;;3.80;;
27642;SDS011;15053;48.618;10.024;2023-02-01T17:01:16;10.50;;;2.97;;
27642;SDS011;15053;48.618;10.024;2023-02-01T17:03:44;8.73;;;2.50;;
27642;SDS011;15053;48.618;10.024;2023-02-01T17:06:16;9.52;;;3.20;;
27642;SDS011;15053;48.618;10.024;2023-02-01T17:08:46;9.48;;;3.03;;
27642;SDS011;15053;48.618;10.024;2023-02-01T17:11:16;13.18;;;3.88;;
27642;SDS011;15053;48.618;10.024;2023-02-01T17:13:43;8.25;;;3.58;;
27642;SDS011;15053;48.618;10.024;2023-02-01T17:18:44;14.75;;;3.35;;
27642;SDS011;15053;48.618;10.024;2023-02-01T17:21:15;10.93;;;3.40;;
27642;SDS011;15053;48.618;10.024;2023-02-01T17:23:42;11.43;;;3.17;;
27642;SDS011;15053;48.618;10.024;2023-02-01T17:26:09;22.65;;;3.72;;
27642;SDS011;15053;48.618;10.024;2023-02-01T17:28:35;7.70;;;3.13;;
27642;SDS011;15053;48.618;10.024;2023-02-01T17:31:02;10.18;;;3.03;;
27642;SDS011;15053;48.618;10.024;2023-02-01T17:33:31;13.98;;;3.42;;
27642;SDS011;15053;48.618;10.024;2023-02-01T17:36:02;13.65;;;3.45;;
27642;SDS011;15053;48.618;10.024;2023-02-01T17:38:31;11.15;;;2.90;;
27642;SDS011;15053;48.618;10.024;2023-02-01T17:40:58;11.02;;;2.88;;
27642;SDS011;15053;48.618;10.024;2023-02-01T17:43:25;10.60;;;3.30;;
27642;SDS011;15053;48.618;10.024;2023-02-01T17:45:52;13.32;;;3.95;;
27642;SDS011;15053;48.618;10.024;2023-02-01T17:48:22;20.02;;;3.90;;
27642;SDS011;15053;48.618;10.024;2023-02-01T17:50:49;14.90;;;3.33;;